sensor_id;sensor_type;location;lat;lon;timestamp;P1;durP1;ratioP1;P2;durP2;ratioP2
35245;SDS011;21379;50.962;6.960;2023-12-22T00:02:16;1.02;;;0.22;;
35245;SDS011;21379;50.962;6.960;2023-12-22T00:04:43;0.95;;;0.30;;
35245;SDS011;21379;50.962;6.960;2023-12-22T00:07:09;0.38;;;0.20;;
35245;SDS011;21379;50.962;6.960;2023-12-22T00:09:36;2.17;;;0.30;;
35245;SDS011;21379;50.962;6.960;2023-12-22T00:12:04;0.90;;;0.30;;
35245;SDS011;21379;50.962;6.960;2023-12-22T00:14:31;0.63;;;0.40;;
35245;SDS011;21379;50.962;6.960;2023-12-22T00:16:58;1.60;;;0.45;;
35245;SDS011;21379;50.962;6.960;2023-12-22T00:19:24;2.55;;;0.50;;
35245;SDS011;21379;50.962;6.960;2023-12-22T00:21:51;2.85;;;1.10;;
35245;SDS011;21379;50.962;6.960;2023-12-22T00:24:18;3.28;;;0.70;;
35245;SDS011;21379;50.962;6.960;2023-12-22T00:26:44;4.10;;;1.67;;
35245;SDS011;21379;50.962;6.960;2023-12-22T00:29:12;1.88;;;0.50;;
35245;SDS011;21379;50.962;6.960;2023-12-22T00:31:39;1.45;;;0.55;;
35245;SDS011;21379;50.962;6.960;2023-12-22T00:34:05;1.50;;;0.40;;
35245;SDS011;21379;50.962;6.960;2023-12-22T00:36:32;3.00;;;1.10;;
35245;SDS011;21379;50.962;6.960;2023-12-22T00:38:59;0.60;;;0.30;;
35245;SDS011;21379;50.962;6.960;2023-12-22T00:41:25;4.80;;;0.60;;
35245;SDS011;21379;50.962;6.960;2023-12-22T00:43:52;7.03;;;0.52;;
35245;SDS011;21379;50.962;6.960;2023-12-22T00:46:20;1.92;;;0.40;;
35245;SDS011;21379;50.962;6.960;2023-12-22T00:48:47;8.07;;;1.02;;
35245;SDS011;21379;50.962;6.960;2023-12-22T00:51:13;4.85;;;0.85;;
35245;SDS011;21379;50.962;6.960;2023-12-22T00:53:41;1.52;;;0.70;;
35245;SDS011;21379;50.962;6.960;2023-12-22T00:56:08;6.63;;;0.65;;
35245;SDS011;21379;50.962;6.960;2023-12-22T00:58:38;5.95;;;1.02;;
35245;SDS011;21379;50.962;6.960;2023-12-22T01:01:04;7.78;;;0.80;;
35245;SDS011;21379;50.962;6.960;2023-12-22T01:03:32;4.45;;;0.85;;
35245;SDS011;21379;50.962;6.960;2023-12-22T01:05:59;4.22;;;0.50;;
35245;SDS011;21379;50.962;6.960;2023-12-22T01:08:26;2.17;;;0.38;;
35245;SDS011;21379;50.962;6.960;2023-12-22T01:10:52;5.25;;;0.50;;
35245;SDS011;21379;50.962;6.960;2023-12-22T01:13:19;2.20;;;0.60;;
35245;SDS011;21379;50.962;6.960;2023-12-22T01:15:46;8.20;;;1.05;;
35245;SDS011;21379;50.962;6.960;2023-12-22T01:18:12;0.47;;;0.40;;
35245;SDS011;21379;50.962;6.960;2023-12-22T01:20:40;8.45;;;1.00;;
35245;SDS011;21379;50.962;6.960;2023-12-22T01:23:07;2.17;;;0.90;;
35245;SDS011;21379;50.962;6.960;2023-12-22T01:25:33;3.83;;;0.95;;
35245;SDS011;21379;50.962;6.960;2023-12-22T01:28:00;4.38;;;0.95;;
35245;SDS011;21379;50.962;6.960;2023-12-22T01:30:27;4.45;;;0.93;;
35245;SDS011;21379;50.962;6.960;2023-12-22T01:32:54;5.97;;;0.93;;
35245;SDS011;21379;50.962;6.960;2023-12-22T01:35:21;6.88;;;0.75;;
35245;SDS011;21379;50.962;6.960;2023-12-22T01:37:49;3.85;;;0.65;;
35245;SDS011;21379;50.962;6.960;2023-12-22T01:40:16;2.15;;;0.60;;
35245;SDS011;21379;50.962;6.960;2023-12-22T01:42:43;4.55;;;0.85;;
35245;SDS011;21379;50.962;6.960;2023-12-22T01:45:10;6.80;;;1.45;;
35245;SDS011;21379;50.962;6.960;2023-12-22T01:47:37;5.22;;;0.82;;
35245;SDS011;21379;50.962;6.960;2023-12-22T01:50:04;6.68;;;0.93;;
35245;SDS011;21379;50.962;6.960;2023-12-22T01:52:31;6.28;;;1.20;;
35245;SDS011;21379;50.962;6.960;2023-12-22T01:54:59;2.95;;;1.00;;
35245;SDS011;21379;50.962;6.960;2023-12-22T01:57:27;2.10;;;0.77;;
35245;SDS011;21379;50.962;6.960;2023-12-22T01:59:54;5.38;;;1.23;;
35245;SDS011;21379;50.962;6.960;2023-12-22T02:02:20;4.07;;;0.80;;
35245;SDS011;21379;50.962;6.960;2023-12-22T02:04:47;4.65;;;1.05;;
35245;SDS011;21379;50.962;6.960;2023-12-22T02:07:14;5.40;;;0.90;;
35245;SDS011;21379;50.962;6.960;2023-12-22T02:09:40;9.20;;;1.02;;
35245;SDS011;21379;50.962;6.960;2023-12-22T02:12:08;8.40;;;0.82;;
35245;SDS011;21379;50.962;6.960;2023-12-22T02:14:35;3.63;;;0.80;;
35245;SDS011;21379;50.962;6.960;2023-12-22T02:17:06;6.78;;;1.10;;
35245;SDS011;21379;50.962;6.960;2023-12-22T02:19:41;6.40;;;1.13;;
35245;SDS011;21379;50.962;6.960;2023-12-22T02:22:08;7.18;;;0.93;;
35245;SDS011;21379;50.962;6.960;2023-12-22T02:24:37;3.17;;;0.80;;
35245;SDS011;21379;50.962;6.960;2023-12-22T02:27:05;5.85;;;1.17;;
35245;SDS011;21379;50.962;6.960;2023-12-22T02:29:34;8.35;;;1.50;;
35245;SDS011;21379;50.962;6.960;2023-12-22T02:32:07;2.95;;;0.82;;
35245;SDS011;21379;50.962;6.960;2023-12-22T02:34:38;6.03;;;1.05;;
35245;SDS011;21379;50.962;6.960;2023-12-22T02:37:08;3.75;;;1.17;;
35245;SDS011;21379;50.962;6.960;2023-12-22T02:39:35;4.28;;;1.50;;
35245;SDS011;21379;50.962;6.960;2023-12-22T02:42:04;4.65;;;0.70;;
35245;SDS011;21379;50.962;6.960;2023-12-22T02:44:31;1.42;;;0.50;;
35245;SDS011;21379;50.962;6.960;2023-12-22T02:46:58;3.45;;;1.00;;
35245;SDS011;21379;50.962;6.960;2023-12-22T02:49:24;6.63;;;1.00;;
35245;SDS011;21379;50.962;6.960;2023-12-22T02:51:51;9.38;;;1.42;;
35245;SDS011;21379;50.962;6.960;2023-12-22T02:54:18;4.55;;;0.80;;
35245;SDS011;21379;50.962;6.960;2023-12-22T02:56:45;3.92;;;0.80;;
35245;SDS011;21379;50.962;6.960;2023-12-22T02:59:13;8.75;;;1.25;;
35245;SDS011;21379;50.962;6.960;2023-12-22T03:04:06;6.18;;;0.70;;
35245;SDS011;21379;50.962;6.960;2023-12-22T03:06:33;2.40;;;0.70;;
35245;SDS011;21379;50.962;6.960;2023-12-22T03:08:59;10.65;;;1.60;;
35245;SDS011;21379;50.962;6.960;2023-12-22T03:11:26;3.88;;;1.00;;
35245;SDS011;21379;50.962;6.960;2023-12-22T03:13:53;13.85;;;1.85;;
35245;SDS011;21379;50.962;6.960;2023-12-22T03:16:21;7.28;;;1.27;;
35245;SDS011;21379;50.962;6.960;2023-12-22T03:18:47;5.50;;;1.38;;
35245;SDS011;21379;50.962;6.960;2023-12-22T03:21:16;6.93;;;1.13;;
35245;SDS011;21379;50.962;6.960;2023-12-22T03:23:43;6.57;;;1.52;;
35245;SDS011;21379;50.962;6.960;2023-12-22T03:26:10;3.10;;;0.93;;
35245;SDS011;21379;50.962;6.960;2023-12-22T03:28:37;6.40;;;1.13;;
35245;SDS011;21379;50.962;6.960;2023-12-22T03:31:03;4.28;;;0.90;;
35245;SDS011;21379;50.962;6.960;2023-12-22T03:33:33;7.75;;;1.17;;
35245;SDS011;21379;50.962;6.960;2023-12-22T03:38:26;8.55;;;1.20;;
35245;SDS011;21379;50.962;6.960;2023-12-22T03:40:53;5.32;;;1.75;;
35245;SDS011;21379;50.962;6.960;2023-12-22T03:43:19;7.70;;;1.42;;
35245;SDS011;21379;50.962;6.960;2023-12-22T03:45:46;6.45;;;1.88;;
35245;SDS011;21379;50.962;6.960;2023-12-22T03:48:13;13.52;;;2.30;;
35245;SDS011;21379;50.962;6.960;2023-12-22T03:50:41;17.17;;;1.75;;
35245;SDS011;21379;50.962;6.960;2023-12-22T03:53:07;8.68;;;1.80;;
35245;SDS011;21379;50.962;6.960;2023-12-22T03:55:34;4.30;;;1.15;;
35245;SDS011;21379;50.962;6.960;2023-12-22T03:58:01;7.10;;;2.40;;
35245;SDS011;21379;50.962;6.960;2023-12-22T04:00:29;9.63;;;1.50;;
35245;SDS011;21379;50.962;6.960;2023-12-22T04:02:56;5.93;;;0.68;;
35245;SDS011;21379;50.962;6.960;2023-12-22T04:05:23;4.03;;;1.08;;
35245;SDS011;21379;50.962;6.960;2023-12-22T04:07:51;9.32;;;1.40;;
35245;SDS011;21379;50.962;6.960;2023-12-22T04:10:17;7.45;;;1.42;;
35245;SDS011;21379;50.962;6.960;2023-12-22T04:12:44;12.65;;;1.55;;
35245;SDS011;21379;50.962;6.960;2023-12-22T04:15:11;5.10;;;1.10;;
35245;SDS011;21379;50.962;6.960;2023-12-22T04:17:38;5.38;;;0.80;;
35245;SDS011;21379;50.962;6.960;2023-12-22T04:20:05;4.85;;;1.25;;
35245;SDS011;21379;50.962;6.960;2023-12-22T04:22:34;8.70;;;1.45;;
35245;SDS011;21379;50.962;6.960;2023-12-22T04:25:02;8.38;;;1.50;;
35245;SDS011;21379;50.962;6.960;2023-12-22T04:27:29;7.00;;;1.38;;
35245;SDS011;21379;50.962;6.960;2023-12-22T04:29:55;6.38;;;1.13;;
35245;SDS011;21379;50.962;6.960;2023-12-22T04:32:22;8.48;;;1.23;;
35245;SDS011;21379;50.962;6.960;2023-12-22T04:34:49;8.25;;;1.17;;
35245;SDS011;21379;50.962;6.960;2023-12-22T04:37:15;7.15;;;1.35;;
35245;SDS011;21379;50.962;6.960;2023-12-22T04:39:42;4.70;;;1.77;;
35245;SDS011;21379;50.962;6.960;2023-12-22T04:42:10;7.65;;;1.77;;
35245;SDS011;21379;50.962;6.960;2023-12-22T04:44:37;9.73;;;1.45;;
35245;SDS011;21379;50.962;6.960;2023-12-22T04:47:03;7.18;;;1.30;;
35245;SDS011;21379;50.962;6.960;2023-12-22T04:49:30;7.22;;;1.25;;
35245;SDS011;21379;50.962;6.960;2023-12-22T04:51:57;4.85;;;1.38;;
35245;SDS011;21379;50.962;6.960;2023-12-22T04:54:23;17.05;;;2.53;;
35245;SDS011;21379;50.962;6.960;2023-12-22T04:56:50;6.70;;;1.38;;
35245;SDS011;21379;50.962;6.960;2023-12-22T04:59:18;4.13;;;1.10;;
35245;SDS011;21379;50.962;6.960;2023-12-22T05:01:45;2.58;;;1.00;;
35245;SDS011;21379;50.962;6.960;2023-12-22T05:04:12;5.57;;;1.80;;
35245;SDS011;21379;50.962;6.960;2023-12-22T05:06:38;9.32;;;1.00;;
35245;SDS011;21379;50.962;6.960;2023-12-22T05:09:05;14.35;;;1.52;;
35245;SDS011;21379;50.962;6.960;2023-12-22T05:11:32;5.97;;;1.30;;
35245;SDS011;21379;50.962;6.960;2023-12-22T05:13:59;5.93;;;0.90;;
35245;SDS011;21379;50.962;6.960;2023-12-22T05:16:27;12.60;;;1.48;;
35245;SDS011;21379;50.962;6.960;2023-12-22T05:18:56;5.75;;;0.75;;
35245;SDS011;21379;50.962;6.960;2023-12-22T05:21:23;9.18;;;1.58;;
35245;SDS011;21379;50.962;6.960;2023-12-22T05:23:49;6.05;;;1.20;;
35245;SDS011;21379;50.962;6.960;2023-12-22T05:26:16;6.65;;;1.58;;
35245;SDS011;21379;50.962;6.960;2023-12-22T05:28:46;10.45;;;1.70;;
35245;SDS011;21379;50.962;6.960;2023-12-22T05:31:14;8.52;;;1.42;;
35245;SDS011;21379;50.962;6.960;2023-12-22T05:33:43;9.40;;;1.50;;
35245;SDS011;21379;50.962;6.960;2023-12-22T05:36:10;6.05;;;1.42;;
35245;SDS011;21379;50.962;6.960;2023-12-22T05:38:37;7.78;;;1.63;;
35245;SDS011;21379;50.962;6.960;2023-12-22T05:41:03;4.50;;;1.33;;
35245;SDS011;21379;50.962;6.960;2023-12-22T05:43:30;6.95;;;1.30;;
35245;SDS011;21379;50.962;6.960;2023-12-22T05:45:57;2.83;;;1.20;;
35245;SDS011;21379;50.962;6.960;2023-12-22T05:48:23;9.55;;;1.77;;
35245;SDS011;21379;50.962;6.960;2023-12-22T05:50:52;18.48;;;1.67;;
35245;SDS011;21379;50.962;6.960;2023-12-22T05:53:18;6.85;;;1.25;;
35245;SDS011;21379;50.962;6.960;2023-12-22T05:55:46;7.65;;;1.35;;
35245;SDS011;21379;50.962;6.960;2023-12-22T05:58:14;8.60;;;1.75;;
35245;SDS011;21379;50.962;6.960;2023-12-22T06:00:40;7.90;;;1.50;;
35245;SDS011;21379;50.962;6.960;2023-12-22T06:03:13;7.63;;;1.25;;
35245;SDS011;21379;50.962;6.960;2023-12-22T06:05:40;4.88;;;1.90;;
35245;SDS011;21379;50.962;6.960;2023-12-22T06:08:08;10.10;;;1.58;;
35245;SDS011;21379;50.962;6.960;2023-12-22T06:10:35;7.22;;;1.35;;
35245;SDS011;21379;50.962;6.960;2023-12-22T06:13:02;6.25;;;1.63;;
35245;SDS011;21379;50.962;6.960;2023-12-22T06:15:30;7.75;;;1.38;;
35245;SDS011;21379;50.962;6.960;2023-12-22T06:17:57;8.95;;;2.22;;
35245;SDS011;21379;50.962;6.960;2023-12-22T06:20:24;3.08;;;1.33;;
35245;SDS011;21379;50.962;6.960;2023-12-22T06:22:51;4.50;;;1.00;;
35245;SDS011;21379;50.962;6.960;2023-12-22T06:25:19;6.10;;;0.95;;
35245;SDS011;21379;50.962;6.960;2023-12-22T06:32:39;9.82;;;1.27;;
35245;SDS011;21379;50.962;6.960;2023-12-22T06:35:06;12.55;;;2.10;;
35245;SDS011;21379;50.962;6.960;2023-12-22T06:37:35;15.80;;;1.70;;
35245;SDS011;21379;50.962;6.960;2023-12-22T06:40:01;6.20;;;1.30;;
35245;SDS011;21379;50.962;6.960;2023-12-22T06:42:30;6.30;;;1.65;;
35245;SDS011;21379;50.962;6.960;2023-12-22T06:44:57;11.00;;;1.25;;
35245;SDS011;21379;50.962;6.960;2023-12-22T06:47:23;11.35;;;1.63;;
35245;SDS011;21379;50.962;6.960;2023-12-22T06:49:52;14.55;;;1.30;;
35245;SDS011;21379;50.962;6.960;2023-12-22T06:52:19;8.45;;;1.83;;
35245;SDS011;21379;50.962;6.960;2023-12-22T06:54:45;6.30;;;1.88;;
35245;SDS011;21379;50.962;6.960;2023-12-22T06:57:12;6.07;;;1.48;;
35245;SDS011;21379;50.962;6.960;2023-12-22T06:59:40;8.90;;;1.15;;
35245;SDS011;21379;50.962;6.960;2023-12-22T07:02:07;3.65;;;1.10;;
35245;SDS011;21379;50.962;6.960;2023-12-22T07:04:33;4.60;;;0.77;;
35245;SDS011;21379;50.962;6.960;2023-12-22T07:07:00;3.25;;;0.60;;
35245;SDS011;21379;50.962;6.960;2023-12-22T07:09:32;2.08;;;0.50;;
35245;SDS011;21379;50.962;6.960;2023-12-22T07:11:59;5.18;;;0.80;;
35245;SDS011;21379;50.962;6.960;2023-12-22T07:14:29;1.70;;;0.65;;
35245;SDS011;21379;50.962;6.960;2023-12-22T07:16:57;1.38;;;0.55;;
35245;SDS011;21379;50.962;6.960;2023-12-22T07:19:26;0.73;;;0.40;;
35245;SDS011;21379;50.962;6.960;2023-12-22T07:21:52;4.45;;;1.00;;
35245;SDS011;21379;50.962;6.960;2023-12-22T07:24:19;6.07;;;0.90;;
35245;SDS011;21379;50.962;6.960;2023-12-22T07:26:46;2.67;;;1.15;;
35245;SDS011;21379;50.962;6.960;2023-12-22T07:29:13;3.78;;;0.65;;
35245;SDS011;21379;50.962;6.960;2023-12-22T07:31:40;3.53;;;0.90;;
35245;SDS011;21379;50.962;6.960;2023-12-22T07:34:08;8.18;;;1.10;;
35245;SDS011;21379;50.962;6.960;2023-12-22T07:48:48;7.82;;;1.00;;
35245;SDS011;21379;50.962;6.960;2023-12-22T07:51:17;7.32;;;1.17;;
35245;SDS011;21379;50.962;6.960;2023-12-22T07:56:10;9.57;;;1.83;;
35245;SDS011;21379;50.962;6.960;2023-12-22T07:58:37;5.78;;;1.77;;
35245;SDS011;21379;50.962;6.960;2023-12-22T08:01:04;7.03;;;1.75;;
35245;SDS011;21379;50.962;6.960;2023-12-22T08:03:31;10.38;;;2.05;;
35245;SDS011;21379;50.962;6.960;2023-12-22T08:05:58;5.63;;;1.20;;
35245;SDS011;21379;50.962;6.960;2023-12-22T08:08:26;11.60;;;2.80;;
35245;SDS011;21379;50.962;6.960;2023-12-22T08:10:53;10.70;;;2.63;;
35245;SDS011;21379;50.962;6.960;2023-12-22T08:13:20;10.88;;;2.22;;
35245;SDS011;21379;50.962;6.960;2023-12-22T08:15:46;15.02;;;3.70;;
35245;SDS011;21379;50.962;6.960;2023-12-22T08:18:13;8.60;;;2.53;;
35245;SDS011;21379;50.962;6.960;2023-12-22T08:20:40;11.02;;;2.13;;
35245;SDS011;21379;50.962;6.960;2023-12-22T08:23:08;8.18;;;2.38;;
35245;SDS011;21379;50.962;6.960;2023-12-22T08:25:38;8.90;;;3.83;;
35245;SDS011;21379;50.962;6.960;2023-12-22T08:28:07;7.40;;;2.05;;
35245;SDS011;21379;50.962;6.960;2023-12-22T08:30:34;13.38;;;2.95;;
35245;SDS011;21379;50.962;6.960;2023-12-22T08:33:00;10.57;;;3.60;;
35245;SDS011;21379;50.962;6.960;2023-12-22T08:35:27;12.18;;;3.53;;
35245;SDS011;21379;50.962;6.960;2023-12-22T08:37:54;15.95;;;4.15;;
35245;SDS011;21379;50.962;6.960;2023-12-22T08:40:20;21.70;;;3.75;;
35245;SDS011;21379;50.962;6.960;2023-12-22T08:42:52;14.07;;;4.22;;
35245;SDS011;21379;50.962;6.960;2023-12-22T08:45:24;14.57;;;2.25;;
35245;SDS011;21379;50.962;6.960;2023-12-22T08:47:53;18.33;;;3.42;;
35245;SDS011;21379;50.962;6.960;2023-12-22T08:50:20;18.90;;;2.90;;
35245;SDS011;21379;50.962;6.960;2023-12-22T08:52:47;7.32;;;2.00;;
35245;SDS011;21379;50.962;6.960;2023-12-22T08:55:14;19.08;;;3.42;;
35245;SDS011;21379;50.962;6.960;2023-12-22T08:57:41;13.98;;;2.65;;
35245;SDS011;21379;50.962;6.960;2023-12-22T09:00:09;11.82;;;2.50;;
35245;SDS011;21379;50.962;6.960;2023-12-22T09:02:37;10.15;;;1.98;;
35245;SDS011;21379;50.962;6.960;2023-12-22T09:05:04;16.30;;;3.78;;
35245;SDS011;21379;50.962;6.960;2023-12-22T09:07:32;13.38;;;2.28;;
35245;SDS011;21379;50.962;6.960;2023-12-22T09:09:59;10.68;;;2.05;;
35245;SDS011;21379;50.962;6.960;2023-12-22T09:12:25;15.73;;;2.67;;
35245;SDS011;21379;50.962;6.960;2023-12-22T09:14:55;11.70;;;2.75;;
35245;SDS011;21379;50.962;6.960;2023-12-22T09:17:25;12.27;;;2.15;;
35245;SDS011;21379;50.962;6.960;2023-12-22T09:19:52;7.38;;;2.45;;
35245;SDS011;21379;50.962;6.960;2023-12-22T09:22:20;13.73;;;2.53;;
35245;SDS011;21379;50.962;6.960;2023-12-22T09:24:47;10.45;;;2.28;;
35245;SDS011;21379;50.962;6.960;2023-12-22T09:27:14;14.02;;;2.65;;
35245;SDS011;21379;50.962;6.960;2023-12-22T09:29:40;16.52;;;3.08;;
35245;SDS011;21379;50.962;6.960;2023-12-22T09:32:07;10.10;;;2.35;;
35245;SDS011;21379;50.962;6.960;2023-12-22T09:34:35;14.02;;;3.38;;
35245;SDS011;21379;50.962;6.960;2023-12-22T09:39:28;12.38;;;2.30;;
35245;SDS011;21379;50.962;6.960;2023-12-22T09:41:55;16.70;;;2.58;;
35245;SDS011;21379;50.962;6.960;2023-12-22T09:44:22;11.20;;;3.10;;
35245;SDS011;21379;50.962;6.960;2023-12-22T09:46:48;4.90;;;2.65;;
35245;SDS011;21379;50.962;6.960;2023-12-22T09:49:16;11.35;;;2.50;;
35245;SDS011;21379;50.962;6.960;2023-12-22T09:51:45;7.05;;;1.48;;
35245;SDS011;21379;50.962;6.960;2023-12-22T09:54:12;9.13;;;2.15;;
35245;SDS011;21379;50.962;6.960;2023-12-22T09:56:40;11.38;;;2.75;;
35245;SDS011;21379;50.962;6.960;2023-12-22T09:59:09;6.35;;;1.90;;
35245;SDS011;21379;50.962;6.960;2023-12-22T10:01:37;6.97;;;1.83;;
35245;SDS011;21379;50.962;6.960;2023-12-22T10:04:05;11.40;;;2.50;;
35245;SDS011;21379;50.962;6.960;2023-12-22T10:06:31;10.45;;;1.65;;
35245;SDS011;21379;50.962;6.960;2023-12-22T10:08:59;8.48;;;2.17;;
35245;SDS011;21379;50.962;6.960;2023-12-22T10:11:30;5.40;;;1.52;;
35245;SDS011;21379;50.962;6.960;2023-12-22T10:13:58;7.75;;;1.50;;
35245;SDS011;21379;50.962;6.960;2023-12-22T10:16:25;5.38;;;1.80;;
35245;SDS011;21379;50.962;6.960;2023-12-22T10:18:52;4.38;;;1.42;;
35245;SDS011;21379;50.962;6.960;2023-12-22T10:21:20;3.35;;;1.10;;
35245;SDS011;21379;50.962;6.960;2023-12-22T10:23:47;2.13;;;0.82;;
35245;SDS011;21379;50.962;6.960;2023-12-22T10:26:15;5.82;;;1.00;;
35245;SDS011;21379;50.962;6.960;2023-12-22T10:28:42;8.38;;;1.10;;
35245;SDS011;21379;50.962;6.960;2023-12-22T10:31:09;4.07;;;1.20;;
35245;SDS011;21379;50.962;6.960;2023-12-22T10:33:36;3.83;;;1.02;;
35245;SDS011;21379;50.962;6.960;2023-12-22T10:36:06;5.55;;;1.27;;
35245;SDS011;21379;50.962;6.960;2023-12-22T10:38:41;8.82;;;1.70;;
35245;SDS011;21379;50.962;6.960;2023-12-22T10:41:08;3.60;;;1.13;;
35245;SDS011;21379;50.962;6.960;2023-12-22T10:43:39;3.05;;;1.13;;
35245;SDS011;21379;50.962;6.960;2023-12-22T10:46:06;5.40;;;1.60;;
35245;SDS011;21379;50.962;6.960;2023-12-22T10:48:36;5.88;;;1.40;;
35245;SDS011;21379;50.962;6.960;2023-12-22T10:51:03;3.50;;;1.38;;
35245;SDS011;21379;50.962;6.960;2023-12-22T10:53:30;6.35;;;2.15;;
35245;SDS011;21379;50.962;6.960;2023-12-22T10:55:56;3.40;;;1.27;;
35245;SDS011;21379;50.962;6.960;2023-12-22T10:58:23;4.65;;;1.67;;
35245;SDS011;21379;50.962;6.960;2023-12-22T11:00:51;3.70;;;1.80;;
35245;SDS011;21379;50.962;6.960;2023-12-22T11:03:18;4.10;;;1.10;;
35245;SDS011;21379;50.962;6.960;2023-12-22T11:05:50;4.20;;;1.27;;
35245;SDS011;21379;50.962;6.960;2023-12-22T11:08:17;5.25;;;2.10;;
35245;SDS011;21379;50.962;6.960;2023-12-22T11:10:45;3.17;;;1.95;;
35245;SDS011;21379;50.962;6.960;2023-12-22T11:13:15;3.83;;;1.20;;
35245;SDS011;21379;50.962;6.960;2023-12-22T11:15:42;3.53;;;1.75;;
35245;SDS011;21379;50.962;6.960;2023-12-22T11:18:11;4.97;;;2.08;;
35245;SDS011;21379;50.962;6.960;2023-12-22T11:20:38;3.72;;;1.33;;
35245;SDS011;21379;50.962;6.960;2023-12-22T11:23:04;2.75;;;1.23;;
35245;SDS011;21379;50.962;6.960;2023-12-22T11:25:31;3.78;;;1.40;;
35245;SDS011;21379;50.962;6.960;2023-12-22T11:27:58;2.95;;;1.42;;
35245;SDS011;21379;50.962;6.960;2023-12-22T11:30:25;5.75;;;1.60;;
35245;SDS011;21379;50.962;6.960;2023-12-22T11:32:53;2.70;;;1.00;;
35245;SDS011;21379;50.962;6.960;2023-12-22T11:35:22;1.83;;;1.50;;
35245;SDS011;21379;50.962;6.960;2023-12-22T11:38:07;4.22;;;1.98;;
35245;SDS011;21379;50.962;6.960;2023-12-22T11:40:39;3.05;;;1.38;;
35245;SDS011;21379;50.962;6.960;2023-12-22T11:43:06;4.80;;;1.30;;
35245;SDS011;21379;50.962;6.960;2023-12-22T11:45:33;2.40;;;1.45;;
35245;SDS011;21379;50.962;6.960;2023-12-22T11:48:04;1.75;;;1.20;;
35245;SDS011;21379;50.962;6.960;2023-12-22T11:50:33;2.95;;;1.48;;
35245;SDS011;21379;50.962;6.960;2023-12-22T11:56:01;2.53;;;1.10;;
35245;SDS011;21379;50.962;6.960;2023-12-22T11:58:39;3.03;;;1.15;;
35245;SDS011;21379;50.962;6.960;2023-12-22T12:01:07;1.73;;;1.40;;
35245;SDS011;21379;50.962;6.960;2023-12-22T12:03:37;1.48;;;1.05;;
35245;SDS011;21379;50.962;6.960;2023-12-22T12:06:11;2.78;;;1.38;;
35245;SDS011;21379;50.962;6.960;2023-12-22T12:11:08;3.20;;;1.10;;
35245;SDS011;21379;50.962;6.960;2023-12-22T12:13:35;4.32;;;1.40;;
35245;SDS011;21379;50.962;6.960;2023-12-22T12:16:04;3.22;;;1.20;;
35245;SDS011;21379;50.962;6.960;2023-12-22T12:18:33;4.28;;;1.00;;
35245;SDS011;21379;50.962;6.960;2023-12-22T12:21:00;3.83;;;0.90;;
35245;SDS011;21379;50.962;6.960;2023-12-22T12:23:28;3.03;;;0.93;;
35245;SDS011;21379;50.962;6.960;2023-12-22T12:25:55;1.90;;;1.10;;
35245;SDS011;21379;50.962;6.960;2023-12-22T12:28:26;2.88;;;1.30;;
35245;SDS011;21379;50.962;6.960;2023-12-22T12:30:57;2.20;;;0.90;;
35245;SDS011;21379;50.962;6.960;2023-12-22T12:33:24;1.23;;;0.80;;
35245;SDS011;21379;50.962;6.960;2023-12-22T12:35:52;2.60;;;0.90;;
35245;SDS011;21379;50.962;6.960;2023-12-22T12:38:19;1.65;;;0.98;;
35245;SDS011;21379;50.962;6.960;2023-12-22T12:40:49;1.95;;;1.00;;
35245;SDS011;21379;50.962;6.960;2023-12-22T12:43:17;2.25;;;1.08;;
35245;SDS011;21379;50.962;6.960;2023-12-22T12:45:44;3.65;;;1.20;;
35245;SDS011;21379;50.962;6.960;2023-12-22T12:48:11;5.05;;;1.02;;
35245;SDS011;21379;50.962;6.960;2023-12-22T12:50:42;2.20;;;0.95;;
35245;SDS011;21379;50.962;6.960;2023-12-22T12:53:09;3.72;;;1.13;;
35245;SDS011;21379;50.962;6.960;2023-12-22T12:55:35;1.05;;;0.93;;
35245;SDS011;21379;50.962;6.960;2023-12-22T12:58:03;2.78;;;1.00;;
35245;SDS011;21379;50.962;6.960;2023-12-22T13:00:30;3.03;;;1.23;;
35245;SDS011;21379;50.962;6.960;2023-12-22T13:03:00;4.28;;;0.90;;
35245;SDS011;21379;50.962;6.960;2023-12-22T13:05:29;2.65;;;1.10;;
35245;SDS011;21379;50.962;6.960;2023-12-22T13:08:06;1.73;;;1.02;;
35245;SDS011;21379;50.962;6.960;2023-12-22T13:10:33;1.80;;;1.10;;
35245;SDS011;21379;50.962;6.960;2023-12-22T13:12:59;3.75;;;1.20;;
35245;SDS011;21379;50.962;6.960;2023-12-22T13:15:27;10.38;;;2.40;;
35245;SDS011;21379;50.962;6.960;2023-12-22T13:17:54;3.13;;;1.50;;
35245;SDS011;21379;50.962;6.960;2023-12-22T13:20:21;3.60;;;0.90;;
35245;SDS011;21379;50.962;6.960;2023-12-22T13:22:48;3.25;;;1.00;;
35245;SDS011;21379;50.962;6.960;2023-12-22T13:25:15;1.58;;;0.65;;
35245;SDS011;21379;50.962;6.960;2023-12-22T13:27:45;3.70;;;0.77;;
35245;SDS011;21379;50.962;6.960;2023-12-22T13:30:12;11.85;;;0.70;;
35245;SDS011;21379;50.962;6.960;2023-12-22T13:32:40;4.47;;;1.10;;
35245;SDS011;21379;50.962;6.960;2023-12-22T13:35:07;5.53;;;1.08;;
35245;SDS011;21379;50.962;6.960;2023-12-22T13:37:39;2.30;;;1.00;;
35245;SDS011;21379;50.962;6.960;2023-12-22T13:40:07;2.05;;;1.25;;
35245;SDS011;21379;50.962;6.960;2023-12-22T13:42:35;4.35;;;1.25;;
35245;SDS011;21379;50.962;6.960;2023-12-22T13:45:09;2.50;;;1.25;;
35245;SDS011;21379;50.962;6.960;2023-12-22T13:47:41;2.25;;;1.08;;
35245;SDS011;21379;50.962;6.960;2023-12-22T13:50:13;4.00;;;1.20;;
35245;SDS011;21379;50.962;6.960;2023-12-22T13:52:40;5.00;;;1.27;;
35245;SDS011;21379;50.962;6.960;2023-12-22T13:55:09;5.65;;;1.45;;
35245;SDS011;21379;50.962;6.960;2023-12-22T13:57:37;6.78;;;1.00;;
35245;SDS011;21379;50.962;6.960;2023-12-22T14:02:54;2.95;;;1.10;;
35245;SDS011;21379;50.962;6.960;2023-12-22T14:05:21;4.70;;;0.90;;
35245;SDS011;21379;50.962;6.960;2023-12-22T14:07:48;1.65;;;1.00;;
35245;SDS011;21379;50.962;6.960;2023-12-22T14:10:15;1.73;;;1.02;;
35245;SDS011;21379;50.962;6.960;2023-12-22T14:12:41;2.35;;;0.82;;
35245;SDS011;21379;50.962;6.960;2023-12-22T14:15:09;6.20;;;1.33;;
35245;SDS011;21379;50.962;6.960;2023-12-22T14:17:36;7.32;;;1.15;;
35245;SDS011;21379;50.962;6.960;2023-12-22T14:20:05;5.13;;;1.30;;
35245;SDS011;21379;50.962;6.960;2023-12-22T14:22:34;8.73;;;1.48;;
35245;SDS011;21379;50.962;6.960;2023-12-22T14:25:01;6.60;;;1.58;;
35245;SDS011;21379;50.962;6.960;2023-12-22T14:27:28;2.47;;;1.30;;
35245;SDS011;21379;50.962;6.960;2023-12-22T14:29:55;5.93;;;1.40;;
35245;SDS011;21379;50.962;6.960;2023-12-22T14:32:21;3.20;;;1.50;;
35245;SDS011;21379;50.962;6.960;2023-12-22T14:34:48;3.42;;;1.20;;
35245;SDS011;21379;50.962;6.960;2023-12-22T14:37:17;3.50;;;1.50;;
35245;SDS011;21379;50.962;6.960;2023-12-22T14:39:44;3.95;;;1.67;;
35245;SDS011;21379;50.962;6.960;2023-12-22T14:42:11;3.97;;;1.20;;
35245;SDS011;21379;50.962;6.960;2023-12-22T14:44:38;4.93;;;1.05;;
35245;SDS011;21379;50.962;6.960;2023-12-22T14:47:05;4.53;;;1.35;;
35245;SDS011;21379;50.962;6.960;2023-12-22T14:49:32;3.10;;;1.40;;
35245;SDS011;21379;50.962;6.960;2023-12-22T14:51:58;2.17;;;0.68;;
35245;SDS011;21379;50.962;6.960;2023-12-22T14:54:26;2.25;;;0.90;;
35245;SDS011;21379;50.962;6.960;2023-12-22T14:56:53;8.60;;;1.35;;
35245;SDS011;21379;50.962;6.960;2023-12-22T14:59:20;2.80;;;1.13;;
35245;SDS011;21379;50.962;6.960;2023-12-22T15:01:46;4.22;;;1.15;;
35245;SDS011;21379;50.962;6.960;2023-12-22T15:04:13;2.22;;;0.90;;
35245;SDS011;21379;50.962;6.960;2023-12-22T15:06:40;3.75;;;0.77;;
35245;SDS011;21379;50.962;6.960;2023-12-22T15:09:08;4.22;;;1.25;;
35245;SDS011;21379;50.962;6.960;2023-12-22T15:11:41;3.63;;;0.75;;
35245;SDS011;21379;50.962;6.960;2023-12-22T15:14:08;3.55;;;1.00;;
35245;SDS011;21379;50.962;6.960;2023-12-22T15:16:38;6.93;;;1.13;;
35245;SDS011;21379;50.962;6.960;2023-12-22T15:19:06;3.88;;;0.68;;
35245;SDS011;21379;50.962;6.960;2023-12-22T15:21:32;5.53;;;1.30;;
35245;SDS011;21379;50.962;6.960;2023-12-22T15:23:59;1.60;;;0.90;;